sensor_id;sensor_type;location;lat;lon;timestamp;P1;durP1;ratioP1;P2;durP2;ratioP2
15312;SDS011;7757;52.626;4.746;2023-01-29T00:01:08;9.38;;;2.15;;
15312;SDS011;7757;52.626;4.746;2023-01-29T00:03:35;8.35;;;2.00;;
15312;SDS011;7757;52.626;4.746;2023-01-29T00:06:04;8.70;;;2.08;;
15312;SDS011;7757;52.626;4.746;2023-01-29T00:08:32;8.23;;;2.20;;
15312;SDS011;7757;52.626;4.746;2023-01-29T00:10:59;9.10;;;2.13;;
15312;SDS011;7757;52.626;4.746;2023-01-29T00:13:27;9.80;;;2.35;;
15312;SDS011;7757;52.626;4.746;2023-01-29T00:15:54;9.88;;;2.30;;
15312;SDS011;7757;52.626;4.746;2023-01-29T00:18:21;11.15;;;2.42;;
15312;SDS011;7757;52.626;4.746;2023-01-29T00:20:48;10.27;;;2.40;;
15312;SDS011;7757;52.626;4.746;2023-01-29T00:23:19;11.85;;;2.33;;
15312;SDS011;7757;52.626;4.746;2023-01-29T00:25:45;9.00;;;2.05;;
15312;SDS011;7757;52.626;4.746;2023-01-29T00:28:12;9.00;;;2.33;;
15312;SDS011;7757;52.626;4.746;2023-01-29T00:30:40;12.93;;;2.30;;
15312;SDS011;7757;52.626;4.746;2023-01-29T00:33:07;10.02;;;2.25;;
15312;SDS011;7757;52.626;4.746;2023-01-29T00:35:33;8.82;;;2.50;;
15312;SDS011;7757;52.626;4.746;2023-01-29T00:38:00;8.20;;;2.10;;
15312;SDS011;7757;52.626;4.746;2023-01-29T00:40:28;8.73;;;1.98;;
15312;SDS011;7757;52.626;4.746;2023-01-29T00:43:15;9.93;;;1.88;;
15312;SDS011;7757;52.626;4.746;2023-01-29T00:45:59;9.60;;;2.08;;
15312;SDS011;7757;52.626;4.746;2023-01-29T00:48:26;10.80;;;2.20;;
15312;SDS011;7757;52.626;4.746;2023-01-29T00:50:52;13.88;;;2.60;;
15312;SDS011;7757;52.626;4.746;2023-01-29T00:53:19;9.15;;;2.10;;
15312;SDS011;7757;52.626;4.746;2023-01-29T00:55:47;10.27;;;2.03;;
15312;SDS011;7757;52.626;4.746;2023-01-29T00:58:14;10.85;;;2.10;;
15312;SDS011;7757;52.626;4.746;2023-01-29T01:00:46;13.85;;;2.50;;
15312;SDS011;7757;52.626;4.746;2023-01-29T01:03:13;9.77;;;2.10;;
15312;SDS011;7757;52.626;4.746;2023-01-29T01:05:38;7.53;;;1.90;;
15312;SDS011;7757;52.626;4.746;2023-01-29T01:08:06;11.02;;;2.22;;
15312;SDS011;7757;52.626;4.746;2023-01-29T01:10:59;10.93;;;2.03;;
15312;SDS011;7757;52.626;4.746;2023-01-29T01:13:26;9.10;;;2.10;;
15312;SDS011;7757;52.626;4.746;2023-01-29T01:15:53;9.85;;;2.03;;
15312;SDS011;7757;52.626;4.746;2023-01-29T01:18:20;13.23;;;2.70;;
15312;SDS011;7757;52.626;4.746;2023-01-29T01:20:47;9.55;;;1.98;;
15312;SDS011;7757;52.626;4.746;2023-01-29T01:23:15;9.43;;;2.00;;
15312;SDS011;7757;52.626;4.746;2023-01-29T01:25:43;6.95;;;2.00;;
15312;SDS011;7757;52.626;4.746;2023-01-29T01:28:11;9.65;;;2.08;;
15312;SDS011;7757;52.626;4.746;2023-01-29T01:30:38;9.82;;;2.00;;
15312;SDS011;7757;52.626;4.746;2023-01-29T01:33:04;8.57;;;1.80;;
15312;SDS011;7757;52.626;4.746;2023-01-29T01:35:31;12.23;;;2.40;;
15312;SDS011;7757;52.626;4.746;2023-01-29T01:37:58;9.73;;;2.08;;
15312;SDS011;7757;52.626;4.746;2023-01-29T01:40:25;9.43;;;1.70;;
15312;SDS011;7757;52.626;4.746;2023-01-29T01:42:52;10.23;;;2.20;;
15312;SDS011;7757;52.626;4.746;2023-01-29T01:45:23;6.70;;;1.60;;
15312;SDS011;7757;52.626;4.746;2023-01-29T01:47:53;10.48;;;2.25;;
15312;SDS011;7757;52.626;4.746;2023-01-29T01:50:23;8.60;;;2.17;;
15312;SDS011;7757;52.626;4.746;2023-01-29T01:52:55;7.50;;;2.08;;
15312;SDS011;7757;52.626;4.746;2023-01-29T01:55:25;9.23;;;2.00;;
15312;SDS011;7757;52.626;4.746;2023-01-29T01:57:55;11.43;;;2.00;;
15312;SDS011;7757;52.626;4.746;2023-01-29T02:00:26;10.85;;;2.08;;
15312;SDS011;7757;52.626;4.746;2023-01-29T02:02:53;7.78;;;1.85;;
15312;SDS011;7757;52.626;4.746;2023-01-29T02:05:38;10.68;;;2.10;;
15312;SDS011;7757;52.626;4.746;2023-01-29T02:08:23;5.18;;;1.55;;
15312;SDS011;7757;52.626;4.746;2023-01-29T02:11:12;6.75;;;1.65;;
15312;SDS011;7757;52.626;4.746;2023-01-29T02:13:39;6.45;;;1.70;;
15312;SDS011;7757;52.626;4.746;2023-01-29T02:16:08;5.63;;;1.60;;
15312;SDS011;7757;52.626;4.746;2023-01-29T02:18:34;7.97;;;1.75;;
15312;SDS011;7757;52.626;4.746;2023-01-29T02:21:19;9.70;;;2.00;;
15312;SDS011;7757;52.626;4.746;2023-01-29T02:27:02;7.60;;;1.52;;
15312;SDS011;7757;52.626;4.746;2023-01-29T02:29:37;6.72;;;1.63;;
15312;SDS011;7757;52.626;4.746;2023-01-29T02:32:18;9.27;;;2.03;;
15312;SDS011;7757;52.626;4.746;2023-01-29T02:34:52;10.88;;;2.28;;
15312;SDS011;7757;52.626;4.746;2023-01-29T02:37:56;8.80;;;1.88;;
15312;SDS011;7757;52.626;4.746;2023-01-29T02:40:28;7.45;;;2.00;;
15312;SDS011;7757;52.626;4.746;2023-01-29T02:43:00;4.78;;;1.40;;
15312;SDS011;7757;52.626;4.746;2023-01-29T02:45:37;10.73;;;2.00;;
15312;SDS011;7757;52.626;4.746;2023-01-29T02:48:10;9.90;;;1.70;;
15312;SDS011;7757;52.626;4.746;2023-01-29T02:50:45;9.55;;;1.80;;
15312;SDS011;7757;52.626;4.746;2023-01-29T02:53:20;7.95;;;1.60;;
15312;SDS011;7757;52.626;4.746;2023-01-29T02:55:54;7.85;;;2.40;;
15312;SDS011;7757;52.626;4.746;2023-01-29T02:58:26;7.65;;;1.60;;
15312;SDS011;7757;52.626;4.746;2023-01-29T03:00:59;11.18;;;1.70;;
15312;SDS011;7757;52.626;4.746;2023-01-29T03:03:30;7.07;;;1.52;;
15312;SDS011;7757;52.626;4.746;2023-01-29T03:06:02;7.47;;;2.08;;
15312;SDS011;7757;52.626;4.746;2023-01-29T03:08:36;9.75;;;1.77;;
15312;SDS011;7757;52.626;4.746;2023-01-29T03:11:10;7.50;;;1.70;;
15312;SDS011;7757;52.626;4.746;2023-01-29T03:13:40;5.68;;;1.67;;
15312;SDS011;7757;52.626;4.746;2023-01-29T03:16:17;7.40;;;1.53;;
15312;SDS011;7757;52.626;4.746;2023-01-29T03:18:50;7.65;;;1.65;;
15312;SDS011;7757;52.626;4.746;2023-01-29T03:21:21;5.43;;;1.55;;
15312;SDS011;7757;52.626;4.746;2023-01-29T03:24:11;7.05;;;1.65;;
15312;SDS011;7757;52.626;4.746;2023-01-29T03:27:00;8.20;;;1.63;;
15312;SDS011;7757;52.626;4.746;2023-01-29T03:29:47;6.53;;;1.58;;
15312;SDS011;7757;52.626;4.746;2023-01-29T03:32:34;8.20;;;1.60;;
15312;SDS011;7757;52.626;4.746;2023-01-29T03:35:03;7.57;;;1.50;;
15312;SDS011;7757;52.626;4.746;2023-01-29T03:37:34;10.23;;;1.90;;
15312;SDS011;7757;52.626;4.746;2023-01-29T03:40:05;6.40;;;1.83;;
15312;SDS011;7757;52.626;4.746;2023-01-29T03:42:35;9.90;;;1.77;;
15312;SDS011;7757;52.626;4.746;2023-01-29T03:45:10;7.07;;;1.50;;
15312;SDS011;7757;52.626;4.746;2023-01-29T03:47:48;8.32;;;1.67;;
15312;SDS011;7757;52.626;4.746;2023-01-29T03:50:28;6.38;;;1.65;;
15312;SDS011;7757;52.626;4.746;2023-01-29T03:53:02;7.18;;;1.60;;
15312;SDS011;7757;52.626;4.746;2023-01-29T03:55:36;5.78;;;1.80;;
15312;SDS011;7757;52.626;4.746;2023-01-29T03:58:09;5.50;;;1.60;;
15312;SDS011;7757;52.626;4.746;2023-01-29T04:00:47;6.13;;;1.50;;
15312;SDS011;7757;52.626;4.746;2023-01-29T04:03:20;7.57;;;1.60;;
15312;SDS011;7757;52.626;4.746;2023-01-29T04:05:52;6.25;;;1.50;;
15312;SDS011;7757;52.626;4.746;2023-01-29T04:08:24;6.68;;;1.67;;
15312;SDS011;7757;52.626;4.746;2023-01-29T04:10:54;10.48;;;1.67;;
15312;SDS011;7757;52.626;4.746;2023-01-29T04:13:24;3.75;;;1.25;;
15312;SDS011;7757;52.626;4.746;2023-01-29T04:15:55;7.00;;;1.60;;
15312;SDS011;7757;52.626;4.746;2023-01-29T04:18:24;5.93;;;1.60;;
15312;SDS011;7757;52.626;4.746;2023-01-29T04:20:52;10.27;;;1.88;;
15312;SDS011;7757;52.626;4.746;2023-01-29T04:23:20;8.68;;;1.70;;
15312;SDS011;7757;52.626;4.746;2023-01-29T04:25:51;8.18;;;1.58;;
15312;SDS011;7757;52.626;4.746;2023-01-29T04:28:25;5.95;;;1.67;;
15312;SDS011;7757;52.626;4.746;2023-01-29T04:31:01;6.95;;;1.70;;
15312;SDS011;7757;52.626;4.746;2023-01-29T04:33:34;6.95;;;1.70;;
15312;SDS011;7757;52.626;4.746;2023-01-29T04:36:12;7.32;;;1.52;;
15312;SDS011;7757;52.626;4.746;2023-01-29T04:38:54;5.75;;;1.40;;
15312;SDS011;7757;52.626;4.746;2023-01-29T04:41:28;7.72;;;1.63;;
15312;SDS011;7757;52.626;4.746;2023-01-29T04:43:59;4.85;;;1.42;;
15312;SDS011;7757;52.626;4.746;2023-01-29T04:46:32;6.07;;;1.70;;
15312;SDS011;7757;52.626;4.746;2023-01-29T04:49:13;4.07;;;1.40;;
15312;SDS011;7757;52.626;4.746;2023-01-29T04:51:48;6.65;;;1.60;;
15312;SDS011;7757;52.626;4.746;2023-01-29T04:54:21;4.80;;;1.60;;
15312;SDS011;7757;52.626;4.746;2023-01-29T04:56:56;6.38;;;1.40;;
15312;SDS011;7757;52.626;4.746;2023-01-29T04:59:32;4.82;;;1.42;;
15312;SDS011;7757;52.626;4.746;2023-01-29T05:02:02;7.78;;;1.70;;
15312;SDS011;7757;52.626;4.746;2023-01-29T05:04:31;5.25;;;1.40;;
15312;SDS011;7757;52.626;4.746;2023-01-29T05:07:01;6.13;;;1.38;;
15312;SDS011;7757;52.626;4.746;2023-01-29T05:09:29;7.93;;;2.20;;
15312;SDS011;7757;52.626;4.746;2023-01-29T05:11:58;7.20;;;1.52;;
15312;SDS011;7757;52.626;4.746;2023-01-29T05:14:26;6.20;;;1.58;;
15312;SDS011;7757;52.626;4.746;2023-01-29T05:16:56;5.00;;;1.40;;
15312;SDS011;7757;52.626;4.746;2023-01-29T05:19:27;4.07;;;1.30;;
15312;SDS011;7757;52.626;4.746;2023-01-29T05:21:55;8.43;;;1.60;;
15312;SDS011;7757;52.626;4.746;2023-01-29T05:24:24;3.28;;;1.20;;
15312;SDS011;7757;52.626;4.746;2023-01-29T05:26:52;8.27;;;1.60;;
15312;SDS011;7757;52.626;4.746;2023-01-29T05:29:37;7.05;;;1.40;;
15312;SDS011;7757;52.626;4.746;2023-01-29T05:32:06;5.53;;;1.48;;
15312;SDS011;7757;52.626;4.746;2023-01-29T05:34:33;5.95;;;1.40;;
15312;SDS011;7757;52.626;4.746;2023-01-29T05:37:01;5.95;;;1.40;;
15312;SDS011;7757;52.626;4.746;2023-01-29T05:39:28;4.22;;;1.38;;
15312;SDS011;7757;52.626;4.746;2023-01-29T05:41:55;6.47;;;1.30;;
15312;SDS011;7757;52.626;4.746;2023-01-29T05:44:21;6.85;;;1.50;;
15312;SDS011;7757;52.626;4.746;2023-01-29T05:46:48;8.15;;;1.60;;
15312;SDS011;7757;52.626;4.746;2023-01-29T05:49:15;6.07;;;1.40;;
15312;SDS011;7757;52.626;4.746;2023-01-29T05:51:44;5.30;;;1.38;;
15312;SDS011;7757;52.626;4.746;2023-01-29T05:54:12;9.63;;;1.65;;
15312;SDS011;7757;52.626;4.746;2023-01-29T05:56:39;7.95;;;1.60;;
15312;SDS011;7757;52.626;4.746;2023-01-29T05:59:06;8.02;;;1.63;;
15312;SDS011;7757;52.626;4.746;2023-01-29T06:01:33;5.45;;;1.50;;
15312;SDS011;7757;52.626;4.746;2023-01-29T06:03:59;9.15;;;1.55;;
15312;SDS011;7757;52.626;4.746;2023-01-29T06:06:26;6.18;;;1.40;;
15312;SDS011;7757;52.626;4.746;2023-01-29T06:08:53;10.30;;;1.50;;
15312;SDS011;7757;52.626;4.746;2023-01-29T06:11:22;7.63;;;1.88;;
15312;SDS011;7757;52.626;4.746;2023-01-29T06:13:48;6.18;;;1.50;;
15312;SDS011;7757;52.626;4.746;2023-01-29T06:16:17;8.38;;;1.60;;
15312;SDS011;7757;52.626;4.746;2023-01-29T06:18:43;7.47;;;1.50;;
15312;SDS011;7757;52.626;4.746;2023-01-29T06:21:11;6.40;;;1.40;;
15312;SDS011;7757;52.626;4.746;2023-01-29T06:23:38;7.13;;;2.33;;
15312;SDS011;7757;52.626;4.746;2023-01-29T06:26:06;4.30;;;1.30;;
15312;SDS011;7757;52.626;4.746;2023-01-29T06:28:35;8.38;;;1.60;;
15312;SDS011;7757;52.626;4.746;2023-01-29T06:31:03;7.65;;;1.70;;
15312;SDS011;7757;52.626;4.746;2023-01-29T06:33:30;16.33;;;1.80;;
15312;SDS011;7757;52.626;4.746;2023-01-29T06:35:57;6.30;;;1.40;;
15312;SDS011;7757;52.626;4.746;2023-01-29T06:38:24;4.55;;;1.23;;
15312;SDS011;7757;52.626;4.746;2023-01-29T06:40:52;9.15;;;1.67;;
15312;SDS011;7757;52.626;4.746;2023-01-29T06:43:19;8.07;;;1.63;;
15312;SDS011;7757;52.626;4.746;2023-01-29T06:45:49;7.10;;;1.40;;
15312;SDS011;7757;52.626;4.746;2023-01-29T06:48:16;7.72;;;1.88;;
15312;SDS011;7757;52.626;4.746;2023-01-29T06:50:43;7.75;;;1.40;;
15312;SDS011;7757;52.626;4.746;2023-01-29T06:53:10;8.05;;;1.65;;
15312;SDS011;7757;52.626;4.746;2023-01-29T06:55:37;8.85;;;1.42;;
15312;SDS011;7757;52.626;4.746;2023-01-29T06:58:05;8.88;;;1.67;;
15312;SDS011;7757;52.626;4.746;2023-01-29T07:00:32;5.47;;;1.60;;
15312;SDS011;7757;52.626;4.746;2023-01-29T07:03:00;7.93;;;1.50;;
15312;SDS011;7757;52.626;4.746;2023-01-29T07:05:27;5.15;;;1.38;;
15312;SDS011;7757;52.626;4.746;2023-01-29T07:07:54;7.85;;;1.40;;
15312;SDS011;7757;52.626;4.746;2023-01-29T07:10:21;7.75;;;1.50;;
15312;SDS011;7757;52.626;4.746;2023-01-29T07:12:48;6.82;;;1.75;;
15312;SDS011;7757;52.626;4.746;2023-01-29T07:15:15;5.32;;;1.40;;
15312;SDS011;7757;52.626;4.746;2023-01-29T07:17:44;5.82;;;1.55;;
15312;SDS011;7757;52.626;4.746;2023-01-29T07:20:22;7.05;;;1.80;;
15312;SDS011;7757;52.626;4.746;2023-01-29T07:22:49;12.73;;;1.63;;
15312;SDS011;7757;52.626;4.746;2023-01-29T07:25:16;6.10;;;1.30;;
15312;SDS011;7757;52.626;4.746;2023-01-29T07:27:42;5.03;;;1.50;;
15312;SDS011;7757;52.626;4.746;2023-01-29T07:30:09;7.70;;;1.40;;
15312;SDS011;7757;52.626;4.746;2023-01-29T07:32:36;5.93;;;1.30;;
15312;SDS011;7757;52.626;4.746;2023-01-29T07:35:03;5.18;;;1.25;;
15312;SDS011;7757;52.626;4.746;2023-01-29T07:37:32;7.57;;;1.50;;
15312;SDS011;7757;52.626;4.746;2023-01-29T07:39:58;9.45;;;1.50;;
15312;SDS011;7757;52.626;4.746;2023-01-29T07:42:25;9.85;;;1.40;;
15312;SDS011;7757;52.626;4.746;2023-01-29T07:44:52;8.85;;;1.50;;
15312;SDS011;7757;52.626;4.746;2023-01-29T07:47:18;6.72;;;1.20;;
15312;SDS011;7757;52.626;4.746;2023-01-29T07:49:45;8.30;;;1.40;;
15312;SDS011;7757;52.626;4.746;2023-01-29T07:52:11;3.20;;;1.30;;
15312;SDS011;7757;52.626;4.746;2023-01-29T07:54:39;6.22;;;1.33;;
15312;SDS011;7757;52.626;4.746;2023-01-29T07:57:06;5.03;;;1.30;;
15312;SDS011;7757;52.626;4.746;2023-01-29T07:59:32;6.35;;;1.42;;
15312;SDS011;7757;52.626;4.746;2023-01-29T08:01:59;6.95;;;1.40;;
15312;SDS011;7757;52.626;4.746;2023-01-29T08:04:26;6.53;;;1.20;;
15312;SDS011;7757;52.626;4.746;2023-01-29T08:06:52;5.55;;;1.33;;
15312;SDS011;7757;52.626;4.746;2023-01-29T08:09:19;8.63;;;1.63;;
15312;SDS011;7757;52.626;4.746;2023-01-29T08:11:47;5.32;;;1.38;;
15312;SDS011;7757;52.626;4.746;2023-01-29T08:14:14;6.60;;;1.50;;
15312;SDS011;7757;52.626;4.746;2023-01-29T08:16:41;6.38;;;1.80;;
15312;SDS011;7757;52.626;4.746;2023-01-29T08:19:07;9.18;;;1.58;;
15312;SDS011;7757;52.626;4.746;2023-01-29T08:21:34;8.27;;;1.60;;
15312;SDS011;7757;52.626;4.746;2023-01-29T08:24:00;8.50;;;1.40;;
15312;SDS011;7757;52.626;4.746;2023-01-29T08:26:27;7.75;;;1.60;;
15312;SDS011;7757;52.626;4.746;2023-01-29T08:28:55;9.02;;;1.55;;
15312;SDS011;7757;52.626;4.746;2023-01-29T08:31:22;7.80;;;1.63;;
15312;SDS011;7757;52.626;4.746;2023-01-29T08:33:48;7.85;;;1.42;;
15312;SDS011;7757;52.626;4.746;2023-01-29T08:36:15;5.93;;;1.35;;
15312;SDS011;7757;52.626;4.746;2023-01-29T08:38:42;7.82;;;1.60;;
15312;SDS011;7757;52.626;4.746;2023-01-29T08:41:08;6.30;;;1.52;;
15312;SDS011;7757;52.626;4.746;2023-01-29T08:43:35;5.55;;;1.30;;
15312;SDS011;7757;52.626;4.746;2023-01-29T08:46:04;7.88;;;1.70;;
15312;SDS011;7757;52.626;4.746;2023-01-29T08:48:31;5.80;;;1.40;;
15312;SDS011;7757;52.626;4.746;2023-01-29T08:50:59;4.88;;;1.30;;
15312;SDS011;7757;52.626;4.746;2023-01-29T08:53:27;6.10;;;1.35;;
15312;SDS011;7757;52.626;4.746;2023-01-29T08:55:54;5.10;;;1.45;;
15312;SDS011;7757;52.626;4.746;2023-01-29T08:58:20;5.60;;;1.40;;
15312;SDS011;7757;52.626;4.746;2023-01-29T09:00:47;3.92;;;1.30;;
15312;SDS011;7757;52.626;4.746;2023-01-29T09:03:15;5.55;;;1.23;;
15312;SDS011;7757;52.626;4.746;2023-01-29T09:05:41;6.00;;;1.40;;
15312;SDS011;7757;52.626;4.746;2023-01-29T09:08:08;6.03;;;1.20;;
15312;SDS011;7757;52.626;4.746;2023-01-29T09:10:35;7.03;;;1.58;;
15312;SDS011;7757;52.626;4.746;2023-01-29T09:13:02;7.82;;;1.52;;
15312;SDS011;7757;52.626;4.746;2023-01-29T09:15:29;5.03;;;1.40;;
15312;SDS011;7757;52.626;4.746;2023-01-29T09:17:56;7.75;;;1.50;;
15312;SDS011;7757;52.626;4.746;2023-01-29T09:20:24;6.40;;;1.40;;
15312;SDS011;7757;52.626;4.746;2023-01-29T09:22:50;6.72;;;1.40;;
15312;SDS011;7757;52.626;4.746;2023-01-29T09:25:20;6.95;;;1.45;;
15312;SDS011;7757;52.626;4.746;2023-01-29T09:27:46;7.30;;;1.50;;
15312;SDS011;7757;52.626;4.746;2023-01-29T09:30:13;6.22;;;1.30;;
15312;SDS011;7757;52.626;4.746;2023-01-29T09:32:40;6.05;;;1.40;;
15312;SDS011;7757;52.626;4.746;2023-01-29T09:35:07;4.32;;;1.20;;
15312;SDS011;7757;52.626;4.746;2023-01-29T09:37:35;3.28;;;1.20;;
15312;SDS011;7757;52.626;4.746;2023-01-29T09:40:02;5.93;;;1.42;;
15312;SDS011;7757;52.626;4.746;2023-01-29T09:42:30;7.57;;;1.30;;
15312;SDS011;7757;52.626;4.746;2023-01-29T09:45:07;6.00;;;1.60;;
15312;SDS011;7757;52.626;4.746;2023-01-29T09:47:39;7.10;;;1.40;;
15312;SDS011;7757;52.626;4.746;2023-01-29T09:50:11;5.72;;;1.20;;
15312;SDS011;7757;52.626;4.746;2023-01-29T09:52:45;5.95;;;1.35;;
15312;SDS011;7757;52.626;4.746;2023-01-29T09:55:14;7.68;;;1.80;;
15312;SDS011;7757;52.626;4.746;2023-01-29T09:57:47;4.30;;;1.40;;
15312;SDS011;7757;52.626;4.746;2023-01-29T10:00:17;5.90;;;1.27;;
15312;SDS011;7757;52.626;4.746;2023-01-29T10:02:52;5.20;;;1.38;;
15312;SDS011;7757;52.626;4.746;2023-01-29T10:05:33;4.68;;;1.23;;
15312;SDS011;7757;52.626;4.746;2023-01-29T10:08:15;4.93;;;1.65;;
15312;SDS011;7757;52.626;4.746;2023-01-29T10:11:07;4.38;;;1.20;;
15312;SDS011;7757;52.626;4.746;2023-01-29T10:13:43;5.13;;;1.30;;
15312;SDS011;7757;52.626;4.746;2023-01-29T10:16:20;4.53;;;1.13;;
15312;SDS011;7757;52.626;4.746;2023-01-29T10:19:08;3.42;;;1.13;;
15312;SDS011;7757;52.626;4.746;2023-01-29T10:22:07;5.35;;;1.40;;
15312;SDS011;7757;52.626;4.746;2023-01-29T10:24:51;5.80;;;1.25;;
15312;SDS011;7757;52.626;4.746;2023-01-29T10:27:24;4.00;;;1.13;;
15312;SDS011;7757;52.626;4.746;2023-01-29T10:29:55;4.45;;;1.20;;
15312;SDS011;7757;52.626;4.746;2023-01-29T10:32:23;4.97;;;1.45;;
15312;SDS011;7757;52.626;4.746;2023-01-29T10:34:52;4.15;;;1.30;;
15312;SDS011;7757;52.626;4.746;2023-01-29T10:37:23;6.57;;;1.30;;
15312;SDS011;7757;52.626;4.746;2023-01-29T10:39:59;9.38;;;1.85;;
15312;SDS011;7757;52.626;4.746;2023-01-29T10:42:27;9.73;;;2.13;;
15312;SDS011;7757;52.626;4.746;2023-01-29T10:45:02;6.82;;;1.38;;
15312;SDS011;7757;52.626;4.746;2023-01-29T10:47:45;5.25;;;1.40;;
15312;SDS011;7757;52.626;4.746;2023-01-29T10:50:40;7.05;;;1.52;;
15312;SDS011;7757;52.626;4.746;2023-01-29T10:53:18;6.90;;;1.40;;
15312;SDS011;7757;52.626;4.746;2023-01-29T10:55:55;5.50;;;1.20;;
15312;SDS011;7757;52.626;4.746;2023-01-29T10:58:31;5.85;;;1.42;;
15312;SDS011;7757;52.626;4.746;2023-01-29T11:01:01;6.10;;;1.30;;
15312;SDS011;7757;52.626;4.746;2023-01-29T11:03:29;5.63;;;1.23;;
15312;SDS011;7757;52.626;4.746;2023-01-29T11:06:00;6.45;;;1.20;;
15312;SDS011;7757;52.626;4.746;2023-01-29T11:08:36;5.35;;;1.30;;
15312;SDS011;7757;52.626;4.746;2023-01-29T11:11:10;7.15;;;1.33;;
15312;SDS011;7757;52.626;4.746;2023-01-29T11:13:40;4.40;;;1.20;;
15312;SDS011;7757;52.626;4.746;2023-01-29T11:16:12;8.88;;;1.70;;
15312;SDS011;7757;52.626;4.746;2023-01-29T11:18:55;4.03;;;1.17;;
15312;SDS011;7757;52.626;4.746;2023-01-29T11:21:23;6.43;;;1.38;;
15312;SDS011;7757;52.626;4.746;2023-01-29T11:24:03;4.75;;;1.35;;
15312;SDS011;7757;52.626;4.746;2023-01-29T11:26:34;5.55;;;1.30;;
15312;SDS011;7757;52.626;4.746;2023-01-29T11:29:04;5.78;;;1.67;;
15312;SDS011;7757;52.626;4.746;2023-01-29T11:31:44;4.88;;;1.33;;
15312;SDS011;7757;52.626;4.746;2023-01-29T11:34:17;7.05;;;1.38;;
15312;SDS011;7757;52.626;4.746;2023-01-29T11:36:48;7.80;;;1.55;;
15312;SDS011;7757;52.626;4.746;2023-01-29T11:39:23;7.00;;;1.50;;
15312;SDS011;7757;52.626;4.746;2023-01-29T11:41:54;7.75;;;1.48;;
15312;SDS011;7757;52.626;4.746;2023-01-29T11:44:27;5.65;;;1.38;;
15312;SDS011;7757;52.626;4.746;2023-01-29T11:46:55;6.20;;;1.30;;
15312;SDS011;7757;52.626;4.746;2023-01-29T11:49:33;6.47;;;1.50;;
15312;SDS011;7757;52.626;4.746;2023-01-29T11:52:01;4.72;;;1.30;;
15312;SDS011;7757;52.626;4.746;2023-01-29T11:54:33;8.85;;;1.40;;
15312;SDS011;7757;52.626;4.746;2023-01-29T11:57:04;7.55;;;1.40;;
15312;SDS011;7757;52.626;4.746;2023-01-29T11:59:48;7.97;;;1.50;;
15312;SDS011;7757;52.626;4.746;2023-01-29T12:02:25;17.58;;;2.90;;
15312;SDS011;7757;52.626;4.746;2023-01-29T12:04:56;22.77;;;3.50;;
15312;SDS011;7757;52.626;4.746;2023-01-29T12:07:25;16.35;;;3.63;;
15312;SDS011;7757;52.626;4.746;2023-01-29T12:09:54;16.58;;;2.80;;
15312;SDS011;7757;52.626;4.746;2023-01-29T12:12:28;22.27;;;3.28;;
15312;SDS011;7757;52.626;4.746;2023-01-29T12:15:08;16.58;;;2.78;;
15312;SDS011;7757;52.626;4.746;2023-01-29T12:17:52;21.17;;;3.30;;
15312;SDS011;7757;52.626;4.746;2023-01-29T12:20:26;19.98;;;3.20;;
15312;SDS011;7757;52.626;4.746;2023-01-29T12:22:59;19.70;;;3.10;;
15312;SDS011;7757;52.626;4.746;2023-01-29T12:25:35;17.30;;;3.17;;
15312;SDS011;7757;52.626;4.746;2023-01-29T12:28:11;17.70;;;2.72;;
15312;SDS011;7757;52.626;4.746;2023-01-29T12:30:47;18.38;;;3.28;;
15312;SDS011;7757;52.626;4.746;2023-01-29T12:33:28;22.80;;;3.53;;
15312;SDS011;7757;52.626;4.746;2023-01-29T12:36:06;15.15;;;3.05;;
15312;SDS011;7757;52.626;4.746;2023-01-29T12:38:38;20.30;;;3.28;;
15312;SDS011;7757;52.626;4.746;2023-01-29T12:41:07;17.20;;;3.10;;
15312;SDS011;7757;52.626;4.746;2023-01-29T12:43:47;14.80;;;3.00;;
15312;SDS011;7757;52.626;4.746;2023-01-29T12:46:21;14.45;;;2.70;;
15312;SDS011;7757;52.626;4.746;2023-01-29T12:48:51;16.92;;;3.22;;
15312;SDS011;7757;52.626;4.746;2023-01-29T12:51:22;16.80;;;3.05;;
15312;SDS011;7757;52.626;4.746;2023-01-29T12:53:53;17.60;;;3.30;;
15312;SDS011;7757;52.626;4.746;2023-01-29T12:56:26;13.95;;;2.67;;
15312;SDS011;7757;52.626;4.746;2023-01-29T12:58:56;15.50;;;2.90;;
15312;SDS011;7757;52.626;4.746;2023-01-29T13:01:26;18.88;;;2.80;;
15312;SDS011;7757;52.626;4.746;2023-01-29T13:03:57;18.25;;;3.15;;
15312;SDS011;7757;52.626;4.746;2023-01-29T13:06:29;18.88;;;3.15;;
15312;SDS011;7757;52.626;4.746;2023-01-29T13:09:00;18.60;;;3.13;;
15312;SDS011;7757;52.626;4.746;2023-01-29T13:11:32;15.15;;;2.55;;
15312;SDS011;7757;52.626;4.746;2023-01-29T13:14:05;21.90;;;3.30;;
15312;SDS011;7757;52.626;4.746;2023-01-29T13:16:40;17.70;;;2.65;;
15312;SDS011;7757;52.626;4.746;2023-01-29T13:19:13;16.92;;;3.08;;
15312;SDS011;7757;52.626;4.746;2023-01-29T13:21:48;16.35;;;3.05;;
15312;SDS011;7757;52.626;4.746;2023-01-29T13:24:17;17.60;;;3.20;;
15312;SDS011;7757;52.626;4.746;2023-01-29T13:26:47;19.35;;;2.95;;
15312;SDS011;7757;52.626;4.746;2023-01-29T13:29:21;16.83;;;3.03;;
15312;SDS011;7757;52.626;4.746;2023-01-29T13:34:19;11.40;;;2.65;;
15312;SDS011;7757;52.626;4.746;2023-01-29T13:36:48;14.93;;;2.75;;
15312;SDS011;7757;52.626;4.746;2023-01-29T13:39:19;16.58;;;3.00;;
15312;SDS011;7757;52.626;4.746;2023-01-29T13:41:48;14.10;;;2.65;;
15312;SDS011;7757;52.626;4.746;2023-01-29T13:44:18;13.65;;;2.72;;
15312;SDS011;7757;52.626;4.746;2023-01-29T13:46:53;12.68;;;2.53;;
15312;SDS011;7757;52.626;4.746;2023-01-29T13:49:24;17.40;;;3.37;;
15312;SDS011;7757;52.626;4.746;2023-01-29T13:52:13;14.60;;;2.60;;
15312;SDS011;7757;52.626;4.746;2023-01-29T13:54:48;13.30;;;3.00;;
15312;SDS011;7757;52.626;4.746;2023-01-29T13:57:46;13.02;;;2.85;;
15312;SDS011;7757;52.626;4.746;2023-01-29T14:03:41;17.65;;;2.85;;
15312;SDS011;7757;52.626;4.746;2023-01-29T14:06:08;14.77;;;2.92;;
15312;SDS011;7757;52.626;4.746;2023-01-29T14:08:36;12.80;;;2.70;;
15312;SDS011;7757;52.626;4.746;2023-01-29T14:13:58;15.60;;;2.70;;
15312;SDS011;7757;52.626;4.746;2023-01-29T14:16:26;15.07;;;2.83;;
15312;SDS011;7757;52.626;4.746;2023-01-29T14:19:01;13.80;;;2.90;;
15312;SDS011;7757;52.626;4.746;2023-01-29T14:21:31;12.40;;;2.42;;
15312;SDS011;7757;52.626;4.746;2023-01-29T14:24:06;12.40;;;2.33;;
15312;SDS011;7757;52.626;4.746;2023-01-29T14:26:39;11.88;;;2.72;;
15312;SDS011;7757;52.626;4.746;2023-01-29T14:31:42;18.85;;;2.85;;
15312;SDS011;7757;52.626;4.746;2023-01-29T14:34:15;15.43;;;2.72;;
15312;SDS011;7757;52.626;4.746;2023-01-29T14:36:48;9.82;;;2.28;;
15312;SDS011;7757;52.626;4.746;2023-01-29T14:39:20;11.57;;;2.78;;
15312;SDS011;7757;52.626;4.746;2023-01-29T14:41:57;11.35;;;2.42;;
15312;SDS011;7757;52.626;4.746;2023-01-29T14:47:50;13.27;;;2.28;;
15312;SDS011;7757;52.626;4.746;2023-01-29T14:53:13;9.45;;;2.40;;
15312;SDS011;7757;52.626;4.746;2023-01-29T14:55:47;11.00;;;2.33;;
15312;SDS011;7757;52.626;4.746;2023-01-29T14:58:18;11.40;;;2.50;;
15312;SDS011;7757;52.626;4.746;2023-01-29T15:00:52;11.35;;;2.50;;
15312;SDS011;7757;52.626;4.746;2023-01-29T15:03:23;15.50;;;2.47;;
15312;SDS011;7757;52.626;4.746;2023-01-29T15:05:56;8.63;;;2.00;;
15312;SDS011;7757;52.626;4.746;2023-01-29T15:08:26;10.63;;;2.22;;
15312;SDS011;7757;52.626;4.746;2023-01-29T15:10:58;16.58;;;2.58;;
15312;SDS011;7757;52.626;4.746;2023-01-29T15:13:49;12.00;;;2.42;;
15312;SDS011;7757;52.626;4.746;2023-01-29T15:16:21;12.43;;;2.50;;
15312;SDS011;7757;52.626;4.746;2023-01-29T15:18:51;11.88;;;2.42;;
15312;SDS011;7757;52.626;4.746;2023-01-29T15:21:23;9.68;;;2.10;;
15312;SDS011;7757;52.626;4.746;2023-01-29T15:24:02;11.85;;;2.28;;
15312;SDS011;7757;52.626;4.746;2023-01-29T15:26:29;10.13;;;2.35;;
15312;SDS011;7757;52.626;4.746;2023-01-29T15:28:57;12.57;;;2.50;;
15312;SDS011;7757;52.626;4.746;2023-01-29T15:31:25;8.73;;;2.38;;
15312;SDS011;7757;52.626;4.746;2023-01-29T15:33:53;11.15;;;2.22;;
15312;SDS011;7757;52.626;4.746;2023-01-29T15:36:23;8.32;;;1.90;;
15312;SDS011;7757;52.626;4.746;2023-01-29T15:39:05;12.70;;;2.70;;
15312;SDS011;7757;52.626;4.746;2023-01-29T15:41:39;13.23;;;2.33;;
15312;SDS011;7757;52.626;4.746;2023-01-29T15:44:07;10.75;;;2.28;;